Time;durP1;ratioP1;P1;durP2;ratioP2;P2;SDS_P1;SDS_P2;PMS_P1;PMS_P2;Temp;Humidity;BMP_temperature;BMP_pressure;BME280_temperature;BME280_humidity;BME280_pressure;Samples;Min_cycle;Max_cycle;Signal;HPM_P1;HPM_P2
2021/04/25 00:00:10;;;;;;;0.10;0.10;;;14.70;45.10;;;;;;5011897;28;20041;-89
2021/04/25 00:02:36;;;;;;;0.10;0.10;;;14.80;45.30;;;;;;5012458;28;20207;-89
2021/04/25 00:05:03;;;;;;;0.00;0.00;;;14.50;45.80;;;;;;5012642;28;20526;-89
2021/04/25 00:07:28;;;;;;;0.22;0.22;;;14.50;46.00;;;;;;5000413;28;20030;-89
2021/04/25 00:09:54;;;;;;;0.30;0.30;;;14.20;47.20;;;;;;4995700;28;20029;-89
2021/04/25 00:12:20;;;;;;;0.20;0.20;;;14.50;46.00;;;;;;5000244;28;20397;-89
2021/04/25 00:14:46;;;;;;;0.32;0.32;;;14.40;46.70;;;;;;4998985;28;20482;-89
2021/04/25 00:17:11;;;;;;;0.00;0.00;;;14.40;46.60;;;;;;5007830;28;20099;-89
2021/04/25 00:19:37;;;;;;;0.03;0.03;;;14.50;46.90;;;;;;4994918;28;20041;-89
2021/04/25 00:22:03;;;;;;;0.00;0.00;;;14.60;45.70;;;;;;4999887;28;20088;-88
2021/04/25 00:24:29;;;;;;;0.00;0.00;;;14.50;46.40;;;;;;5000856;28;20045;-89
2021/04/25 00:26:54;;;;;;;0.20;0.20;;;14.30;47.00;;;;;;4995171;28;20030;-89
2021/04/25 00:29:20;;;;;;;0.00;0.00;;;14.20;46.90;;;;;;5000939;28;20030;-89
2021/04/25 00:31:46;;;;;;;1.10;0.80;;;14.00;48.10;;;;;;5006446;28;20026;-89
2021/04/25 00:34:12;;;;;;;0.10;0.10;;;13.90;48.60;;;;;;5011607;28;20037;-89
2021/04/25 00:36:37;;;;;;;2.45;0.70;;;13.90;48.70;;;;;;4998218;28;20069;-89
2021/04/25 00:39:04;;;;;;;0.00;0.00;;;13.60;49.50;;;;;;5004849;28;20025;-89
2021/04/25 00:41:30;;;;;;;0.15;0.15;;;13.80;49.30;;;;;;5004228;28;20080;-89
2021/04/25 00:43:56;;;;;;;0.80;0.80;;;13.50;49.80;;;;;;4992287;28;20422;-89
2021/04/25 00:46:22;;;;;;;0.17;0.17;;;13.90;49.10;;;;;;4999818;28;20061;-89
2021/04/25 00:48:51;;;;;;;0.57;0.20;;;13.90;48.60;;;;;;4994499;28;20030;-89
2021/04/25 00:51:21;;;;;;;0.10;0.10;;;13.80;49.70;;;;;;5008429;28;20022;-89
2021/04/25 00:53:47;;;;;;;0.40;0.40;;;13.80;49.50;;;;;;5011800;28;20029;-89
2021/04/25 00:56:15;;;;;;;1.23;0.30;;;13.50;50.20;;;;;;5002829;28;20049;-89
2021/04/25 00:58:41;;;;;;;0.10;0.10;;;13.90;49.70;;;;;;4998465;28;20030;-89
2021/04/25 01:01:07;;;;;;;0.45;0.45;;;13.80;50.20;;;;;;4999043;28;20030;-89
2021/04/25 01:03:33;;;;;;;0.00;0.00;;;14.00;49.50;;;;;;5010863;28;20481;-89
2021/04/25 01:05:59;;;;;;;0.32;0.32;;;14.00;49.10;;;;;;4997606;28;20027;-89
2021/04/25 01:08:24;;;;;;;0.30;0.30;;;14.40;48.20;;;;;;4993610;28;20085;-88
2021/04/25 01:10:50;;;;;;;0.10;0.10;;;14.40;47.80;;;;;;4994951;28;20027;-88
2021/04/25 01:13:17;;;;;;;0.15;0.15;;;14.10;49.10;;;;;;4997199;28;20478;-88
2021/04/25 01:15:43;;;;;;;0.25;0.25;;;14.00;49.40;;;;;;5009468;28;20022;-89
2021/04/25 01:18:09;;;;;;;0.00;0.00;;;14.10;49.40;;;;;;4993258;28;20036;-88
2021/04/25 01:20:35;;;;;;;0.10;0.10;;;13.40;51.30;;;;;;5008812;28;20069;-89
2021/04/25 01:23:00;;;;;;;0.08;0.08;;;13.30;51.80;;;;;;5012212;28;20576;-88
2021/04/25 01:25:27;;;;;;;0.00;0.00;;;13.60;51.10;;;;;;5003259;28;20031;-89
2021/04/25 01:27:52;;;;;;;0.10;0.10;;;13.50;51.10;;;;;;5004075;28;20063;-88
2021/04/25 01:30:24;;;;;;;1.08;0.20;;;13.50;51.40;;;;;;5005157;28;20070;-88
2021/04/25 01:32:50;;;;;;;0.20;0.20;;;13.50;51.80;;;;;;5008484;28;20401;-88
2021/04/25 01:35:21;;;;;;;0.20;0.20;;;13.40;51.60;;;;;;5010156;28;20022;-88
2021/04/25 01:37:56;;;;;;;0.20;0.20;;;13.10;52.80;;;;;;5012140;28;20026;-88
2021/04/25 01:40:25;;;;;;;1.52;1.25;;;12.90;53.60;;;;;;5002546;28;20076;-88
2021/04/25 01:42:52;;;;;;;1.35;0.30;;;13.00;54.20;;;;;;5003492;28;20033;-88
2021/04/25 01:45:18;;;;;;;0.10;0.10;;;13.30;52.50;;;;;;4999777;28;20551;-88
2021/04/25 01:47:52;;;;;;;0.10;0.10;;;13.00;53.60;;;;;;5009923;28;20026;-88
2021/04/25 01:50:20;;;;;;;1.08;0.63;;;12.90;53.50;;;;;;5005573;28;20530;-88
2021/04/25 01:52:45;;;;;;;0.10;0.10;;;12.90;54.10;;;;;;5003847;28;20116;-88
2021/04/25 01:55:12;;;;;;;0.22;0.22;;;12.80;54.80;;;;;;5002176;28;20114;-89
2021/04/25 01:57:38;;;;;;;0.30;0.30;;;12.90;54.40;;;;;;4995389;28;20026;-88
2021/04/25 02:00:07;;;;;;;0.10;0.10;;;12.90;54.80;;;;;;5003771;28;20472;-88
2021/04/25 02:02:33;;;;;;;0.00;0.00;;;12.80;54.80;;;;;;4995491;28;20074;-89
2021/04/25 02:04:59;;;;;;;0.10;0.10;;;12.80;55.20;;;;;;4998016;28;20031;-89
2021/04/25 02:07:25;;;;;;;0.22;0.22;;;12.70;55.20;;;;;;5011007;28;20461;-89
2021/04/25 02:09:51;;;;;;;0.10;0.10;;;12.80;55.70;;;;;;5003455;28;20022;-89
2021/04/25 02:12:17;;;;;;;0.00;0.00;;;12.90;55.60;;;;;;4998365;28;20097;-89
2021/04/25 02:14:43;;;;;;;0.22;0.15;;;12.70;55.70;;;;;;5002514;28;20581;-89
2021/04/25 02:17:09;;;;;;;0.90;0.68;;;12.70;55.60;;;;;;4994308;28;20367;-89
2021/04/25 02:19:35;;;;;;;0.00;0.00;;;12.70;55.70;;;;;;4993087;28;20533;-89
2021/04/25 02:22:01;;;;;;;0.25;0.10;;;12.80;56.20;;;;;;5002277;28;20061;-90
2021/04/25 02:24:27;;;;;;;0.20;0.20;;;12.70;56.50;;;;;;4999102;28;20425;-89
2021/04/25 02:26:53;;;;;;;0.00;0.00;;;12.70;57.50;;;;;;4990128;28;20041;-89
2021/04/25 02:29:19;;;;;;;0.00;0.00;;;12.60;56.70;;;;;;5007937;28;20038;-90
2021/04/25 02:31:44;;;;;;;0.32;0.30;;;12.60;56.40;;;;;;5000350;28;20029;-89
2021/04/25 02:34:10;;;;;;;0.10;0.10;;;12.90;56.20;;;;;;5009136;28;20026;-89
2021/04/25 02:36:36;;;;;;;0.22;0.22;;;12.80;56.20;;;;;;4996301;28;20030;-89
2021/04/25 02:39:02;;;;;;;0.73;0.15;;;12.80;56.40;;;;;;5002039;28;20096;-89
2021/04/25 02:41:28;;;;;;;0.35;0.35;;;12.70;57.60;;;;;;5004105;28;20096;-89
2021/04/25 02:43:54;;;;;;;0.20;0.20;;;12.70;57.20;;;;;;5005478;28;20041;-88
2021/04/25 02:46:20;;;;;;;0.10;0.10;;;12.80;56.80;;;;;;4994072;28;20042;-88
2021/04/25 02:48:45;;;;;;;0.10;0.10;;;12.70;57.30;;;;;;4992494;28;20051;-88
2021/04/25 02:51:11;;;;;;;1.45;0.28;;;12.70;57.00;;;;;;5006010;28;20034;-89
2021/04/25 02:53:37;;;;;;;0.65;0.55;;;12.80;57.50;;;;;;5000364;28;20269;-88
2021/04/25 02:56:03;;;;;;;0.20;0.20;;;12.60;58.10;;;;;;4998543;28;20030;-89
2021/04/25 02:58:30;;;;;;;0.10;0.10;;;12.60;58.20;;;;;;5009718;28;20025;-89
2021/04/25 03:00:55;;;;;;;0.20;0.20;;;12.50;58.60;;;;;;5009318;28;20084;-89
2021/04/25 03:03:21;;;;;;;0.25;0.25;;;12.50;58.40;;;;;;4998617;28;20405;-88
2021/04/25 03:05:49;;;;;;;0.07;0.07;;;12.50;59.30;;;;;;4999508;28;20022;-89
2021/04/25 03:08:15;;;;;;;0.20;0.20;;;12.20;60.40;;;;;;4999208;28;20049;-89
2021/04/25 03:10:40;;;;;;;0.28;0.28;;;12.30;60.10;;;;;;4997852;28;20022;-89
2021/04/25 03:13:06;;;;;;;0.93;0.38;;;12.20;60.30;;;;;;5006876;28;20111;-89
2021/04/25 03:15:32;;;;;;;0.43;0.32;;;12.20;60.60;;;;;;5007461;28;20022;-89
2021/04/25 03:17:58;;;;;;;0.13;0.13;;;12.20;60.60;;;;;;5001808;28;20026;-89
2021/04/25 03:20:23;;;;;;;0.00;0.00;;;12.10;60.60;;;;;;5007209;28;20022;-89
2021/04/25 03:22:50;;;;;;;0.00;0.00;;;12.20;61.00;;;;;;4997277;28;20092;-89
2021/04/25 03:25:16;;;;;;;0.20;0.20;;;12.10;61.70;;;;;;5008537;28;20036;-88
2021/04/25 03:27:42;;;;;;;0.10;0.10;;;12.10;61.20;;;;;;5017423;28;20046;-89
2021/04/25 03:30:11;;;;;;;0.05;0.05;;;12.00;61.60;;;;;;5002820;28;20456;-90
2021/04/25 03:32:37;;;;;;;0.00;0.00;;;11.90;62.10;;;;;;4992136;28;20045;-89
2021/04/25 03:35:06;;;;;;;0.37;0.37;;;11.70;63.30;;;;;;5003426;28;20121;-89
2021/04/25 03:37:32;;;;;;;0.10;0.10;;;11.70;63.10;;;;;;5001016;28;20033;-88
2021/04/25 03:39:58;;;;;;;0.28;0.15;;;11.70;63.40;;;;;;4995460;28;20088;-89
2021/04/25 03:42:24;;;;;;;0.10;0.10;;;11.60;63.10;;;;;;5000074;28;20107;-89
2021/04/25 03:44:50;;;;;;;0.03;0.03;;;11.50;63.50;;;;;;4998757;28;20499;-89
2021/04/25 03:47:15;;;;;;;0.00;0.00;;;11.50;64.40;;;;;;5001273;28;20018;-89
2021/04/25 03:49:41;;;;;;;1.70;0.75;;;11.30;65.10;;;;;;4989331;28;20023;-89
2021/04/25 03:52:08;;;;;;;0.08;0.08;;;11.40;65.70;;;;;;5005821;28;20037;-89
2021/04/25 03:54:34;;;;;;;;;;;11.40;65.30;;;;;;5008062;28;20022;-88
2021/04/25 03:57:00;;;;;;;1.42;0.77;;;11.50;64.70;;;;;;4999765;28;19913;-89
2021/04/25 03:59:27;;;;;;;0.40;0.40;;;11.40;65.50;;;;;;4995017;28;20394;-89
2021/04/25 04:01:53;;;;;;;0.10;0.10;;;11.00;66.30;;;;;;5012350;28;20378;-89
2021/04/25 04:04:19;;;;;;;0.15;0.15;;;11.00;67.00;;;;;;5010216;28;20513;-89
2021/04/25 04:06:45;;;;;;;0.63;0.30;;;11.00;67.20;;;;;;5008402;28;20026;-89
2021/04/25 04:09:11;;;;;;;0.52;0.52;;;11.00;67.20;;;;;;4998089;28;20021;-89
2021/04/25 04:11:37;;;;;;;0.10;0.10;;;11.20;66.30;;;;;;5010291;28;20037;-89
2021/04/25 04:14:03;;;;;;;0.15;0.15;;;11.10;66.80;;;;;;5010975;28;20045;-88
2021/04/25 04:16:29;;;;;;;0.90;0.90;;;11.00;80.60;;;;;;5010234;28;20014;-89
2021/04/25 04:18:54;;;;;;;0.10;0.10;;;10.80;67.80;;;;;;5011254;28;20041;-89
2021/04/25 04:21:20;;;;;;;0.43;0.43;;;10.80;68.20;;;;;;4999311;28;20080;-89
2021/04/25 04:23:46;;;;;;;0.00;0.00;;;10.70;68.70;;;;;;5002154;28;20552;-89
2021/04/25 04:26:13;;;;;;;0.00;0.00;;;10.70;69.40;;;;;;4997321;28;20022;-88
2021/04/25 04:28:39;;;;;;;0.17;0.17;;;10.50;70.80;;;;;;4999016;28;20029;-88
2021/04/25 04:31:06;;;;;;;0.00;0.00;;;10.30;70.70;;;;;;4990993;28;20037;-88
2021/04/25 04:33:32;;;;;;;0.20;0.20;;;10.20;71.30;;;;;;5002937;28;20054;-88
2021/04/25 04:35:58;;;;;;;0.32;0.32;;;10.30;72.80;;;;;;4999563;28;20125;-88
2021/04/25 04:38:24;;;;;;;0.28;0.28;;;10.40;71.20;;;;;;5005698;28;20452;-88
2021/04/25 04:40:49;;;;;;;0.10;0.10;;;10.20;72.10;;;;;;5006211;28;20030;-89
2021/04/25 04:43:15;;;;;;;0.30;0.22;;;10.20;72.80;;;;;;5009852;28;20066;-88
2021/04/25 04:45:41;;;;;;;0.17;0.17;;;10.20;73.50;;;;;;5002990;28;20022;-89
2021/04/25 04:48:07;;;;;;;0.30;0.30;;;10.20;73.70;;;;;;5010242;28;20029;-88
2021/04/25 04:50:33;;;;;;;0.20;0.20;;;10.30;73.30;;;;;;5002135;28;20711;-89
2021/04/25 04:52:58;;;;;;;0.20;0.20;;;10.20;73.30;;;;;;4994437;28;20101;-88
2021/04/25 04:55:24;;;;;;;0.10;0.10;;;10.30;72.90;;;;;;4999763;28;20398;-89
2021/04/25 04:57:50;;;;;;;1.65;0.40;;;10.20;73.30;;;;;;4998597;28;20475;-89
2021/04/25 05:00:16;;;;;;;0.38;0.38;;;10.30;87.20;;;;;;5018747;28;20037;-89
2021/04/25 05:02:42;;;;;;;0.10;0.10;;;10.20;74.50;;;;;;4997489;28;20042;-89
2021/04/25 05:05:08;;;;;;;0.20;0.20;;;10.10;74.00;;;;;;5006039;28;20497;-89
2021/04/25 05:07:34;;;;;;;0.30;0.30;;;10.40;75.80;;;;;;5009118;28;20033;-89
2021/04/25 05:10:00;;;;;;;0.95;0.65;;;10.50;74.70;;;;;;4999647;28;20025;-89
2021/04/25 05:12:26;;;;;;;0.08;0.08;;;10.40;74.70;;;;;;4994838;28;20529;-89
2021/04/25 05:14:51;;;;;;;0.13;0.13;;;10.30;75.10;;;;;;4997521;28;20010;-88
2021/04/25 05:17:17;;;;;;;0.28;0.28;;;10.40;75.50;;;;;;5001180;28;20117;-89
2021/04/25 05:19:43;;;;;;;0.05;0.05;;;11.00;75.20;;;;;;4992708;28;20026;-89
2021/04/25 05:22:09;;;;;;;0.13;0.13;;;10.90;73.60;;;;;;5005941;28;20113;-89
2021/04/25 05:24:35;;;;;;;0.10;0.10;;;11.10;73.40;;;;;;5009604;28;20088;-88
2021/04/25 05:27:01;;;;;;;0.20;0.20;;;11.10;74.00;;;;;;4998215;28;20088;-88
2021/04/25 05:29:26;;;;;;;0.10;0.10;;;11.10;74.30;;;;;;5005877;28;20030;-89
2021/04/25 05:31:52;;;;;;;0.05;0.05;;;11.10;75.10;;;;;;5005344;28;20407;-89
2021/04/25 05:34:18;;;;;;;0.33;0.33;;;11.90;74.40;;;;;;4999885;28;20529;-89
2021/04/25 05:36:45;;;;;;;0.20;0.20;;;13.10;69.90;;;;;;5006466;28;20025;-89
2021/04/25 05:39:12;;;;;;;0.38;0.20;;;13.30;69.40;;;;;;4991761;28;20042;-90
2021/04/25 05:41:37;;;;;;;0.00;0.00;;;13.70;69.50;;;;;;5002872;28;20025;-90
2021/04/25 05:44:04;;;;;;;0.10;0.10;;;14.20;67.90;;;;;;5005927;28;20033;-89
2021/04/25 05:46:30;;;;;;;0.30;0.30;;;14.40;67.30;;;;;;5017089;28;20037;-89
2021/04/25 05:48:55;;;;;;;0.10;0.10;;;13.30;66.50;;;;;;5019254;28;20402;-89
2021/04/25 05:51:22;;;;;;;0.10;0.10;;;12.50;81.60;;;;;;5002177;28;20080;-87
2021/04/25 05:53:48;;;;;;;0.55;0.30;;;12.10;71.00;;;;;;5014251;28;20449;-87
2021/04/25 05:56:14;;;;;;;0.10;0.10;;;12.80;83.20;;;;;;4993569;28;20030;-88
2021/04/25 05:58:39;;;;;;;0.00;0.00;;;13.40;66.60;;;;;;4998698;28;20037;-87
2021/04/25 06:01:05;;;;;;;0.15;0.10;;;13.10;68.30;;;;;;4998634;28;20026;-86
2021/04/25 06:03:31;;;;;;;0.38;0.38;;;13.20;69.00;;;;;;4994762;28;20030;-88
2021/04/25 06:05:57;;;;;;;0.00;0.00;;;14.80;66.20;;;;;;4997334;28;20010;-88
2021/04/25 06:08:23;;;;;;;0.38;0.38;;;16.00;61.50;;;;;;4996660;28;20031;-87
2021/04/25 06:10:49;;;;;;;0.00;0.00;;;17.10;58.90;;;;;;5008694;28;20026;-87
2021/04/25 06:13:15;;;;;;;0.38;0.38;;;14.90;63.70;;;;;;5005140;28;20033;-88
2021/04/25 06:15:41;;;;;;;0.20;0.20;;;14.90;63.60;;;;;;5000879;28;20026;-87
2021/04/25 06:18:07;;;;;;;0.20;0.20;;;14.00;64.80;;;;;;4998688;28;20097;-88
2021/04/25 06:20:33;;;;;;;0.15;0.15;;;13.60;65.90;;;;;;5006312;28;20072;-88
2021/04/25 06:22:59;;;;;;;0.17;0.17;;;13.90;66.40;;;;;;5007643;28;20510;-86
2021/04/25 06:25:25;;;;;;;0.10;0.10;;;14.20;66.70;;;;;;4997821;28;20084;-86
2021/04/25 06:27:51;;;;;;;0.32;0.32;;;15.00;64.10;;;;;;4994250;28;20026;-86
2021/04/25 06:30:18;;;;;;;0.10;0.10;;;14.80;65.30;;;;;;5004963;28;20041;-87
2021/04/25 06:32:48;;;;;;;0.43;0.15;;;14.70;63.50;;;;;;5000010;28;20528;-86
2021/04/25 06:35:15;;;;;;;0.43;0.40;;;15.20;64.20;;;;;;5008025;28;20072;-88
2021/04/25 06:37:44;;;;;;;0.32;0.32;;;16.30;62.50;;;;;;4999412;28;20595;-88
2021/04/25 06:40:14;;;;;;;0.43;0.43;;;16.50;59.10;;;;;;4993486;28;20049;-86
2021/04/25 06:42:40;;;;;;;0.13;0.08;;;15.30;61.40;;;;;;4996629;28;20037;-86
2021/04/25 06:45:14;;;;;;;0.20;0.20;;;15.30;60.90;;;;;;4995769;28;20038;-87
2021/04/25 06:47:41;;;;;;;0.55;0.55;;;15.10;63.20;;;;;;4998969;28;20041;-85
2021/04/25 06:50:10;;;;;;;0.20;0.20;;;14.90;61.50;;;;;;4989933;28;20031;-85
2021/04/25 06:52:38;;;;;;;0.35;0.35;;;14.90;62.90;;;;;;4996723;28;20100;-86
2021/04/25 06:55:04;;;;;;;0.10;0.10;;;15.00;63.00;;;;;;5001340;28;20097;-84
2021/04/25 06:57:30;;;;;;;;;;;14.50;64.20;;;;;;4989096;28;20411;-86
2021/04/25 06:59:56;;;;;;;1.23;0.73;;;14.50;63.90;;;;;;4988818;28;19957;-86
2021/04/25 07:02:22;;;;;;;0.37;0.37;;;14.50;64.30;;;;;;4999455;28;20034;-86
2021/04/25 07:04:47;;;;;;;0.20;0.20;;;14.40;64.60;;;;;;5008880;28;20034;-86
2021/04/25 07:07:13;;;;;;;0.20;0.20;;;14.40;64.10;;;;;;5007251;28;20083;-87
2021/04/25 07:09:41;;;;;;;0.10;0.10;;;14.60;63.60;;;;;;5008851;28;20116;-86
2021/04/25 07:12:07;;;;;;;0.10;0.10;;;14.70;63.70;;;;;;5008642;28;20046;-86
2021/04/25 07:14:33;;;;;;;0.10;0.10;;;14.80;63.50;;;;;;4991166;28;20036;-86
2021/04/25 07:16:59;;;;;;;0.25;0.25;;;15.00;64.30;;;;;;4997613;28;20113;-86
2021/04/25 07:19:24;;;;;;;0.10;0.10;;;15.20;62.90;;;;;;5008618;28;20052;-86
2021/04/25 07:21:50;;;;;;;0.07;0.07;;;15.20;63.60;;;;;;5008654;28;20064;-86
2021/04/25 07:24:16;;;;;;;0.00;0.00;;;15.50;61.80;;;;;;5008820;28;20065;-87
2021/04/25 07:26:42;;;;;;;0.17;0.17;;;15.80;61.30;;;;;;5010477;28;20079;-87
2021/04/25 07:29:08;;;;;;;0.30;0.30;;;15.90;60.40;;;;;;5012492;28;20021;-86
2021/04/25 07:31:34;;;;;;;0.28;0.20;;;16.10;60.40;;;;;;5009942;28;20029;-86
2021/04/25 07:33:59;;;;;;;0.20;0.20;;;16.30;59.50;;;;;;5006469;28;20029;-86
2021/04/25 07:36:27;;;;;;;0.20;0.20;;;16.40;60.20;;;;;;4992821;28;20026;-87
2021/04/25 07:38:52;;;;;;;0.10;0.10;;;16.30;59.20;;;;;;4992677;28;20562;-87
2021/04/25 07:41:18;;;;;;;0.60;0.30;;;16.30;59.40;;;;;;4992927;28;20037;-86
2021/04/25 07:43:44;;;;;;;0.77;0.73;;;16.40;58.80;;;;;;4992393;28;20038;-86
2021/04/25 07:46:10;;;;;;;0.10;0.10;;;16.70;58.40;;;;;;4992468;28;20030;-85
2021/04/25 07:48:36;;;;;;;0.10;0.10;;;16.90;57.00;;;;;;4992488;28;20041;-84
2021/04/25 07:51:02;;;;;;;0.23;0.20;;;17.00;56.30;;;;;;4998755;28;20556;-86
2021/04/25 07:53:28;;;;;;;0.10;0.10;;;17.00;56.10;;;;;;4997604;28;20034;-86
2021/04/25 07:55:54;;;;;;;0.43;0.43;;;17.60;53.70;;;;;;4992609;28;20023;-86
2021/04/25 07:58:20;;;;;;;0.10;0.10;;;18.20;53.90;;;;;;5020078;28;20156;-85
2021/04/25 08:00:46;;;;;;;0.00;0.00;;;18.00;53.20;;;;;;4994508;28;20199;-84
2021/04/25 08:03:13;;;;;;;0.10;0.10;;;17.70;53.90;;;;;;4992355;28;20053;-84
2021/04/25 08:05:39;;;;;;;0.35;0.35;;;17.80;54.50;;;;;;4992233;28;20160;-84
2021/04/25 08:08:05;;;;;;;0.10;0.10;;;17.90;54.20;;;;;;5003730;28;20116;-85
2021/04/25 08:10:31;;;;;;;0.08;0.08;;;18.20;54.60;;;;;;5011541;28;20022;-85
2021/04/25 08:12:57;;;;;;;0.47;0.47;;;18.10;54.00;;;;;;5000385;28;20053;-85
2021/04/25 08:15:23;;;;;;;0.10;0.10;;;17.60;54.80;;;;;;4999952;28;20037;-84
2021/04/25 08:17:56;;;;;;;0.00;0.00;;;17.70;54.90;;;;;;4999722;28;20037;-84
2021/04/25 08:20:24;;;;;;;0.17;0.17;;;17.60;54.50;;;;;;4990832;28;20030;-84
2021/04/25 08:22:51;;;;;;;0.20;0.20;;;17.70;54.20;;;;;;4997849;28;20108;-85
2021/04/25 08:25:18;;;;;;;0.35;0.35;;;17.80;54.40;;;;;;5002326;28;20120;-84
2021/04/25 08:27:45;;;;;;;;;;;18.20;52.70;;;;;;4996680;28;20034;-85
2021/04/25 08:30:15;;;;;;;0.10;0.10;;;18.60;51.20;;;;;;4997620;28;19914;-85
2021/04/25 08:32:41;;;;;;;0.10;0.10;;;18.60;51.90;;;;;;5003308;28;20524;-85
2021/04/25 08:35:07;;;;;;;0.10;0.10;;;18.80;50.40;;;;;;5000440;28;20026;-85
2021/04/25 08:37:33;;;;;;;0.20;0.20;;;19.00;49.60;;;;;;5009561;28;20036;-86
2021/04/25 08:39:59;;;;;;;0.03;0.03;;;19.50;49.50;;;;;;5010855;28;20440;-86
2021/04/25 08:42:32;;;;;;;0.10;0.10;;;19.00;51.30;;;;;;4995852;28;20038;-85
2021/04/25 08:44:59;;;;;;;0.15;0.15;;;19.20;50.00;;;;;;5007967;28;20025;-86
2021/04/25 08:47:29;;;;;;;0.00;0.00;;;19.80;48.80;;;;;;5000334;28;20077;-85
2021/04/25 08:50:04;;;;;;;0.00;0.00;;;20.00;48.10;;;;;;4999197;28;20030;-86
2021/04/25 08:52:30;;;;;;;2.25;1.08;;;19.70;47.30;;;;;;5000391;28;20058;-86
2021/04/25 08:54:58;;;;;;;0.13;0.13;;;20.00;47.50;;;;;;5006776;28;20577;-87
2021/04/25 08:57:24;;;;;;;0.00;0.00;;;19.60;48.40;;;;;;5003488;28;20044;-86
2021/04/25 08:59:50;;;;;;;0.10;0.10;;;19.70;47.50;;;;;;4997055;28;20029;-86
2021/04/25 09:02:17;;;;;;;0.10;0.10;;;19.60;48.50;;;;;;5003974;28;20036;-86
2021/04/25 09:04:44;;;;;;;0.10;0.10;;;20.10;45.40;;;;;;4979941;28;20041;-86
2021/04/25 09:07:17;;;;;;;0.05;0.05;;;20.20;45.70;;;;;;4992667;28;20034;-86
2021/04/25 09:09:48;;;;;;;0.40;0.20;;;20.60;43.60;;;;;;5003943;28;20022;-88
2021/04/25 09:12:40;;;;;;;0.10;0.10;;;21.10;42.20;;;;;;5003419;28;20119;-89
2021/04/25 09:15:28;;;;;;;1.67;0.43;;;21.10;42.40;;;;;;5018832;28;20030;-88
2021/04/25 09:18:04;;;;;;;0.10;0.10;;;21.90;40.00;;;;;;5013486;28;20038;-87
2021/04/25 09:20:44;;;;;;;0.10;0.10;;;22.70;37.60;;;;;;5008304;28;20113;-88
2021/04/25 09:23:25;;;;;;;0.30;0.13;;;21.90;38.60;;;;;;5014235;28;20053;-88
2021/04/25 09:26:00;;;;;;;0.10;0.10;;;22.50;38.10;;;;;;5020403;28;20026;-87
2021/04/25 09:28:27;;;;;;;0.00;0.00;;;22.80;35.40;;;;;;5003690;28;20034;-88
2021/04/25 09:30:59;;;;;;;0.20;0.05;;;23.50;32.10;;;;;;5001354;28;20068;-88
2021/04/25 09:33:28;;;;;;;0.00;0.00;;;23.30;34.10;;;;;;5004997;28;20037;-87
2021/04/25 09:36:00;;;;;;;0.17;0.13;;;23.20;33.50;;;;;;5004821;28;20112;-88
2021/04/25 09:38:37;;;;;;;0.22;0.22;;;22.80;35.40;;;;;;5001952;28;20157;-88
2021/04/25 09:41:03;;;;;;;0.00;0.00;;;22.10;34.60;;;;;;5003130;28;20043;-88
2021/04/25 09:43:39;;;;;;;0.00;0.00;;;22.40;34.80;;;;;;5002718;28;20037;-89
2021/04/25 09:46:07;;;;;;;0.00;0.00;;;22.20;33.50;;;;;;5000873;28;20042;-90
2021/04/25 09:48:35;;;;;;;5.38;0.30;;;22.40;34.50;;;;;;5001854;28;20066;-89
2021/04/25 09:51:21;;;;;;;0.00;0.00;;;20.70;37.90;;;;;;5003265;28;20014;-89
2021/04/25 09:53:54;;;;;;;0.00;0.00;;;21.40;37.40;;;;;;5005735;28;20502;-89
2021/04/25 09:56:34;;;;;;;0.00;0.00;;;21.70;34.50;;;;;;4998383;28;20022;-89
2021/04/25 09:59:02;;;;;;;0.05;0.00;;;21.50;34.30;;;;;;5005698;28;20828;-89
2021/04/25 10:01:32;;;;;;;0.38;0.22;;;22.80;31.90;;;;;;5002187;28;20049;-90
2021/04/25 10:03:59;;;;;;;0.00;0.00;;;23.80;30.80;;;;;;4997464;28;20034;-89
2021/04/25 10:06:26;;;;;;;0.00;0.00;;;25.50;27.40;;;;;;4998763;28;20402;-89
2021/04/25 10:08:53;;;;;;;0.10;0.10;;;24.40;55.90;;;;;;5001580;28;20018;-89
2021/04/25 10:11:21;;;;;;;0.00;0.00;;;24.30;28.20;;;;;;4997779;28;20606;-88
2021/04/25 10:13:47;;;;;;;0.00;0.00;;;24.00;28.20;;;;;;5002853;28;20038;-89
2021/04/25 10:16:14;;;;;;;;;;;22.90;40.00;;;;;;5003433;28;20027;-88
2021/04/25 10:18:40;;;;;;;0.00;0.00;;;23.20;30.50;;;;;;4997251;28;19920;-88
2021/04/25 10:21:06;;;;;;;0.00;0.00;;;22.20;32.30;;;;;;5005297;28;20037;-87
2021/04/25 10:23:32;;;;;;;0.00;0.00;;;21.90;30.60;;;;;;5002450;28;20052;-88
2021/04/25 10:26:00;;;;;;;0.00;0.00;;;21.90;32.20;;;;;;5001168;28;20021;-88
2021/04/25 10:28:40;;;;;;;0.00;0.00;;;22.10;32.80;;;;;;4994345;28;20285;-88
2021/04/25 10:31:10;;;;;;;0.00;0.00;;;21.70;34.10;;;;;;4995668;28;20022;-88
2021/04/25 10:33:58;;;;;;;0.17;0.17;;;21.80;32.20;;;;;;5012114;28;20053;-88
2021/04/25 10:36:44;;;;;;;0.00;0.00;;;21.60;32.80;;;;;;4995649;28;20418;-88
2021/04/25 10:39:35;;;;;;;0.00;0.00;;;22.00;31.90;;;;;;4997303;28;20021;-88
2021/04/25 10:42:28;;;;;;;0.10;0.10;;;22.20;30.60;;;;;;5003439;28;20496;-87
2021/04/25 10:45:04;;;;;;;0.10;0.10;;;23.20;30.60;;;;;;5005660;28;20030;-88
2021/04/25 10:47:38;;;;;;;0.00;0.00;;;22.40;33.50;;;;;;5003953;28;20092;-88
2021/04/25 10:50:09;;;;;;;0.00;0.00;;;23.80;27.70;;;;;;5010863;28;20509;-89
2021/04/25 10:52:37;;;;;;;0.65;0.50;;;24.80;25.80;;;;;;5003805;28;20117;-88
2021/04/25 10:55:17;;;;;;;2.20;1.08;;;24.80;27.20;;;;;;4993508;28;20022;-88
2021/04/25 10:57:56;;;;;;;0.00;0.00;;;24.10;26.50;;;;;;4995699;28;20121;-87
2021/04/25 11:00:42;;;;;;;0.00;0.00;;;22.50;28.70;;;;;;4990805;28;20731;-87
2021/04/25 11:03:09;;;;;;;0.00;0.00;;;22.10;30.70;;;;;;4999141;28;20042;-88
2021/04/25 11:05:38;;;;;;;0.00;0.00;;;22.70;28.00;;;;;;5000051;28;20037;-87
2021/04/25 11:08:05;;;;;;;0.00;0.00;;;22.90;32.70;;;;;;4996196;28;20117;-88
2021/04/25 11:10:51;;;;;;;0.05;0.00;;;23.20;28.60;;;;;;4992376;28;20026;-87
2021/04/25 11:13:44;;;;;;;0.00;0.00;;;22.50;29.30;;;;;;4991623;28;20030;-88
2021/04/25 11:16:20;;;;;;;0.08;0.08;;;22.70;27.80;;;;;;5006595;28;20084;-88
2021/04/25 11:18:55;;;;;;;0.65;0.65;;;22.70;27.20;;;;;;4996832;28;20030;-87
2021/04/25 11:24:01;;;;;;;0.00;0.00;;;22.80;27.50;;;;;;4998864;28;20046;-88
2021/04/25 11:26:40;;;;;;;0.00;0.00;;;22.30;28.60;;;;;;5004701;28;20853;-89
2021/04/25 11:29:14;;;;;;;0.03;0.03;;;22.30;27.70;;;;;;4999605;28;20066;-88
2021/04/25 11:31:48;;;;;;;0.00;0.00;;;22.60;27.10;;;;;;5006077;28;20026;-88
2021/04/25 11:34:35;;;;;;;0.10;0.10;;;22.10;28.50;;;;;;5006300;28;20033;-87
2021/04/25 11:37:05;;;;;;;0.00;0.00;;;22.30;27.90;;;;;;5002047;28;20071;-89
2021/04/25 11:40:06;;;;;;;0.00;0.00;;;22.70;28.90;;;;;;5004270;28;20021;-90
2021/04/25 11:42:39;;;;;;;0.00;0.00;;;23.20;26.70;;;;;;5004835;28;20029;-89
2021/04/25 11:45:19;;;;;;;0.25;0.25;;;23.10;26.30;;;;;;5001530;28;20045;-88
2021/04/25 11:47:59;;;;;;;0.00;0.00;;;23.80;26.10;;;;;;4995543;28;20784;-89
2021/04/25 11:50:35;;;;;;;0.00;0.00;;;23.90;25.90;;;;;;4998094;28;20033;-88
2021/04/25 11:53:01;;;;;;;0.00;0.00;;;23.70;25.50;;;;;;4996030;28;20022;-88
2021/04/25 11:55:32;;;;;;;0.15;0.15;;;22.90;26.50;;;;;;5001494;28;20031;-89
2021/04/25 11:58:00;;;;;;;0.10;0.10;;;23.00;26.30;;;;;;5001407;28;20026;-88
2021/04/25 12:00:36;;;;;;;0.10;0.10;;;23.60;26.10;;;;;;4999327;28;20569;-88
2021/04/25 12:03:05;;;;;;;0.10;0.10;;;22.30;26.90;;;;;;4999861;28;20026;-88
2021/04/25 12:05:38;;;;;;;0.00;0.00;;;22.10;27.40;;;;;;5005845;28;20034;-88
2021/04/25 12:08:08;;;;;;;0.00;0.00;;;22.80;26.60;;;;;;4995702;28;20109;-88
2021/04/25 12:10:47;;;;;;;0.00;0.00;;;23.40;26.20;;;;;;4998251;28;20494;-88
2021/04/25 12:13:27;;;;;;;0.10;0.10;;;23.70;25.90;;;;;;4999797;28;20018;-88
2021/04/25 12:15:56;;;;;;;0.00;0.00;;;23.40;26.90;;;;;;5000437;28;20030;-88
2021/04/25 12:18:32;;;;;;;0.00;0.00;;;22.20;27.20;;;;;;4994000;28;20030;-88
2021/04/25 12:21:00;;;;;;;0.00;0.00;;;21.80;28.20;;;;;;5004647;28;20060;-88
2021/04/25 12:23:31;;;;;;;0.00;0.00;;;21.60;28.50;;;;;;5010911;28;20054;-88
2021/04/25 12:25:57;;;;;;;0.10;0.10;;;21.40;29.30;;;;;;5011208;28;20113;-88
2021/04/25 12:28:38;;;;;;;0.20;0.00;;;21.30;30.10;;;;;;5011712;28;20022;-88
2021/04/25 12:31:05;;;;;;;0.17;0.17;;;21.30;30.00;;;;;;5011468;28;20433;-88
2021/04/25 12:33:44;;;;;;;0.15;0.00;;;21.40;29.40;;;;;;5011568;28;20026;-88
2021/04/25 12:36:13;;;;;;;0.00;0.00;;;21.40;29.50;;;;;;5010669;28;20038;-88
2021/04/25 12:38:39;;;;;;;0.10;0.10;;;21.60;29.60;;;;;;5010692;28;20022;-88
2021/04/25 12:41:09;;;;;;;0.00;0.00;;;21.40;30.20;;;;;;5010524;28;20088;-88
2021/04/25 12:43:38;;;;;;;0.00;0.00;;;21.20;29.90;;;;;;5011398;28;20034;-88
2021/04/25 12:46:12;;;;;;;0.00;0.00;;;20.90;30.50;;;;;;5011064;28;20034;-88
2021/04/25 12:48:51;;;;;;;0.00;0.00;;;20.80;30.50;;;;;;5011322;28;20096;-88
2021/04/25 12:51:17;;;;;;;0.20;0.17;;;21.30;29.60;;;;;;5011370;28;20474;-88
2021/04/25 12:53:57;;;;;;;0.00;0.00;;;21.50;29.30;;;;;;5026697;28;20045;-88
2021/04/25 12:56:36;;;;;;;0.00;0.00;;;21.50;31.10;;;;;;5011078;28;20030;-88